Time;durP1;ratioP1;P1;durP2;ratioP2;P2;SDS_P1;SDS_P2;PMS_P1;PMS_P2;Temp;Humidity;BMP_temperature;BMP_pressure;BME280_temperature;BME280_humidity;BME280_pressure;Samples;Min_cycle;Max_cycle;Signal;HPM_P1;HPM_P2
2023/02/22 00:01:07;0.00;0.00;0.62;0.00;0.00;0.62;3.10;2.50;;;23.90;26.80;;;;;;2296017;58;20368;-66
2023/02/22 00:03:52;0.00;0.00;0.62;0.00;0.00;0.62;4.43;2.00;;;23.90;26.80;;;;;;2259781;61;20967;-61
2023/02/22 00:06:37;0.00;0.00;0.62;0.00;0.00;0.62;2.90;2.60;;;23.90;26.80;;;;;;2260022;61;20457;-62
2023/02/22 00:09:21;0.00;0.00;0.62;0.00;0.00;0.62;2.50;1.83;;;23.90;26.80;;;;;;2258350;61;20373;-67
2023/02/22 00:12:07;0.00;0.00;0.62;0.00;0.00;0.62;2.30;1.90;;;23.90;26.70;;;;;;2260173;61;20388;-64
2023/02/22 00:14:52;0.00;0.00;0.62;0.00;0.00;0.62;3.60;2.23;;;23.90;26.70;;;;;;2256437;61;20365;-65
2023/02/22 00:17:38;0.00;0.00;0.62;0.00;0.00;0.62;3.07;2.23;;;23.90;26.70;;;;;;2258785;58;20437;-66
2023/02/22 00:20:23;0.00;0.00;0.62;0.00;0.00;0.62;3.90;2.63;;;23.90;26.70;;;;;;2256086;61;20362;-67
2023/02/22 00:23:13;0.00;0.00;0.62;0.00;0.00;0.62;3.40;2.43;;;23.90;26.70;;;;;;2256369;61;20386;-66
2023/02/22 00:26:00;0.00;0.00;0.62;0.00;0.00;0.62;2.37;2.00;;;23.90;26.70;;;;;;2259002;61;20360;-67
2023/02/22 00:28:46;0.00;0.00;0.62;0.00;0.00;0.62;3.30;2.40;;;23.90;26.70;;;;;;2260277;61;20361;-68
2023/02/22 00:31:37;0.00;0.00;0.62;0.00;0.00;0.62;2.40;2.10;;;23.90;26.70;;;;;;2258749;61;20571;-67
2023/02/22 00:34:24;0.00;0.00;0.62;0.00;0.00;0.62;2.60;2.10;;;23.90;26.70;;;;;;2259524;61;20423;-67
2023/02/22 00:37:09;0.00;0.00;0.62;0.00;0.00;0.62;2.40;2.07;;;23.90;26.70;;;;;;2259906;61;20388;-67
2023/02/22 00:39:54;0.00;0.00;0.62;0.00;0.00;0.62;3.03;2.50;;;23.90;26.70;;;;;;2258770;61;20392;-65
2023/02/22 00:42:38;0.00;0.00;0.62;0.00;0.00;0.62;2.67;2.23;;;23.90;26.70;;;;;;2259676;61;20384;-65
2023/02/22 00:45:26;0.00;0.00;0.62;0.00;0.00;0.62;3.07;2.20;;;24.00;26.70;;;;;;2260053;61;20766;-64
2023/02/22 00:48:11;0.00;0.00;0.62;0.00;0.00;0.62;3.17;1.93;;;24.00;26.70;;;;;;2258441;61;20380;-63
2023/02/22 00:50:57;0.00;0.00;0.62;0.00;0.00;0.62;2.10;1.77;;;24.00;26.70;;;;;;2259509;61;20369;-67
2023/02/22 00:53:41;0.00;0.00;0.62;0.00;0.00;0.62;2.33;1.80;;;24.00;26.70;;;;;;2259166;61;20532;-65
2023/02/22 00:56:26;0.00;0.00;0.62;0.00;0.00;0.62;2.37;1.77;;;24.00;26.70;;;;;;2259751;61;20412;-65
2023/02/22 00:59:11;0.00;0.00;0.62;0.00;0.00;0.62;2.57;2.17;;;23.90;26.60;;;;;;2259376;61;20381;-66
2023/02/22 01:01:57;0.00;0.00;0.62;0.00;0.00;0.62;2.67;2.00;;;24.00;26.70;;;;;;2259435;61;20781;-64
2023/02/22 01:04:42;0.00;0.00;0.62;0.00;0.00;0.62;2.20;1.73;;;24.00;26.70;;;;;;2257625;61;20373;-65
2023/02/22 01:07:30;0.00;0.00;0.62;0.00;0.00;0.62;2.60;1.93;;;24.00;27.20;;;;;;2260194;61;20373;-64
2023/02/22 01:10:19;0.00;0.00;0.62;0.00;0.00;0.62;3.33;2.20;;;24.00;26.70;;;;;;2258927;61;20365;-64
2023/02/22 01:13:07;0.00;0.00;0.62;0.00;0.00;0.62;2.30;1.70;;;24.00;26.70;;;;;;2260024;61;20837;-64
2023/02/22 01:15:53;0.00;0.00;0.62;0.00;0.00;0.62;2.27;1.90;;;24.00;26.70;;;;;;2259029;61;20434;-65
2023/02/22 01:18:38;0.00;0.00;0.62;0.00;0.00;0.62;2.40;1.70;;;24.00;26.70;;;;;;2259911;61;20388;-64
2023/02/22 01:21:23;0.00;0.00;0.62;0.00;0.00;0.62;2.50;2.10;;;23.90;26.60;;;;;;2260009;61;20381;-65
2023/02/22 01:24:15;0.00;0.00;0.62;0.00;0.00;0.62;2.27;1.77;;;24.00;26.60;;;;;;2259254;61;20454;-64
2023/02/22 01:27:01;0.00;0.00;0.62;0.00;0.00;0.62;2.40;1.90;;;24.00;26.70;;;;;;2260044;61;20423;-66
2023/02/22 01:29:49;0.00;0.00;0.62;0.00;0.00;0.62;2.23;1.83;;;24.00;26.70;;;;;;2259892;61;20403;-63
2023/02/22 01:32:34;0.00;0.00;0.62;0.00;0.00;0.62;3.00;1.87;;;24.00;26.70;;;;;;2259965;61;20389;-65
2023/02/22 01:35:26;0.00;0.00;0.62;0.00;0.00;0.62;2.20;1.63;;;24.00;26.70;;;;;;2259977;61;20365;-65
2023/02/22 01:38:12;0.00;0.00;0.62;0.00;0.00;0.62;2.27;1.60;;;24.00;26.70;;;;;;2259426;61;20376;-65
2023/02/22 01:40:59;0.00;0.00;0.62;0.00;0.00;0.62;2.47;1.83;;;23.90;26.60;;;;;;2261588;61;20414;-65
2023/02/22 01:43:44;0.00;0.00;0.62;0.00;0.00;0.62;2.17;1.60;;;24.00;26.80;;;;;;2260019;61;20438;-65
2023/02/22 01:46:32;0.00;0.00;0.62;0.00;0.00;0.62;2.30;1.63;;;23.90;26.70;;;;;;2256218;61;20341;-65
2023/02/22 01:49:17;0.00;0.00;0.62;0.00;0.00;0.62;2.43;1.70;;;23.90;26.70;;;;;;2259466;61;20357;-63
2023/02/22 01:52:07;0.00;0.00;0.62;0.00;0.00;0.62;1.90;1.33;;;23.90;26.70;;;;;;2278661;58;20444;-65
2023/02/22 01:54:57;0.00;0.00;0.62;0.00;0.00;0.62;3.60;2.27;;;23.90;26.70;;;;;;2255487;61;20489;-65
2023/02/22 01:57:43;0.00;0.00;0.62;0.00;0.00;0.62;2.47;2.03;;;23.90;26.70;;;;;;2255960;61;20512;-66
2023/02/22 02:00:30;0.00;0.00;0.62;0.00;0.00;0.62;2.70;2.00;;;23.90;26.70;;;;;;2252631;61;20373;-66
2023/02/22 02:03:20;0.00;0.00;0.62;0.00;0.00;0.62;4.23;2.87;;;23.90;26.70;;;;;;2256195;61;20998;-70
2023/02/22 02:06:11;0.00;0.00;0.62;0.00;0.00;0.62;3.10;2.60;;;23.90;26.70;;;;;;2253776;61;20879;-64
2023/02/22 02:09:03;0.00;0.00;0.62;0.00;0.00;0.62;3.70;2.67;;;24.00;26.80;;;;;;2255828;61;20365;-66
2023/02/22 02:11:49;0.00;0.00;0.62;0.00;0.00;0.62;3.83;2.80;;;23.90;26.70;;;;;;2256604;61;20362;-66
2023/02/22 02:14:39;0.00;0.00;0.62;0.00;0.00;0.62;4.10;3.20;;;23.90;26.60;;;;;;2256284;61;20381;-66
2023/02/22 02:17:24;0.00;0.00;0.62;0.00;0.00;0.62;4.60;3.23;;;24.00;26.60;;;;;;2256669;61;20600;-65
2023/02/22 02:20:16;0.00;0.00;0.62;0.00;0.00;0.62;5.30;3.97;;;24.00;26.60;;;;;;2256707;61;20424;-66
2023/02/22 02:23:15;0.00;0.00;0.62;0.00;0.00;0.62;5.53;3.17;;;24.00;26.60;;;;;;2255900;61;20448;-66
2023/02/22 02:26:39;0.00;0.00;0.62;0.00;0.00;0.62;4.40;3.50;;;24.00;26.60;;;;;;2256664;61;20378;-64
2023/02/22 02:30:36;0.00;0.00;0.62;0.00;0.00;0.62;5.00;4.13;;;23.90;26.40;;;;;;2256025;61;20920;-64
2023/02/22 02:33:28;0.00;0.00;0.62;0.00;0.00;0.62;6.43;4.10;;;23.90;26.40;;;;;;2236828;61;21178;-66
2023/02/22 02:36:21;0.00;0.00;0.62;0.00;0.00;0.62;4.70;3.70;;;23.90;26.40;;;;;;2237151;61;20404;-63
2023/02/22 02:39:18;0.00;0.00;0.62;0.00;0.00;0.62;5.40;3.87;;;23.90;26.40;;;;;;2521674;46;21020;-64
2023/02/22 02:42:07;0.00;0.00;0.62;0.00;0.00;0.62;5.13;4.30;;;23.90;26.40;;;;;;2247229;61;20424;-64
2023/02/22 02:44:59;0.00;0.00;0.62;0.00;0.00;0.62;6.50;4.73;;;23.90;26.40;;;;;;2255813;61;20945;-64
2023/02/22 02:47:47;0.00;0.00;0.62;0.00;0.00;0.62;5.37;4.60;;;23.90;26.30;;;;;;2256139;61;20758;-63
2023/02/22 02:50:40;0.00;0.00;0.62;0.00;0.00;0.62;6.03;4.70;;;23.90;26.30;;;;;;2256795;61;20760;-64
2023/02/22 02:53:32;0.00;0.00;0.62;0.00;0.00;0.62;6.10;4.90;;;23.90;26.30;;;;;;2252266;61;20386;-63
2023/02/22 02:56:17;0.00;0.00;0.62;0.00;0.00;0.62;6.23;5.23;;;23.80;26.20;;;;;;2256553;61;20432;-65
2023/02/22 02:59:02;0.00;0.00;0.62;0.00;0.00;0.62;6.00;4.50;;;23.80;26.20;;;;;;2255204;61;20998;-67
2023/02/22 03:02:01;0.00;0.00;0.62;0.00;0.00;0.62;5.80;4.63;;;23.80;26.20;;;;;;2256311;61;20779;-62
2023/02/22 03:05:06;0.00;0.00;0.62;0.00;0.00;0.62;5.00;4.27;;;23.80;26.20;;;;;;2256597;61;20421;-64
2023/02/22 03:07:59;0.00;0.00;0.62;0.00;0.00;0.62;5.63;4.57;;;23.80;26.20;;;;;;2255899;61;20421;-68
2023/02/22 03:11:00;0.00;0.00;0.62;0.00;0.00;0.62;5.93;4.70;;;23.70;26.20;;;;;;2255778;61;20365;-64
2023/02/22 03:13:58;0.00;0.00;0.62;0.00;0.00;0.62;5.00;4.07;;;23.70;26.10;;;;;;2252656;61;20754;-64
2023/02/22 03:16:51;0.00;0.00;0.62;0.00;0.00;0.62;5.30;4.53;;;23.70;26.20;;;;;;2256074;61;20390;-65
2023/02/22 03:19:44;0.00;0.00;0.62;0.00;0.00;0.62;5.97;4.40;;;23.70;26.20;;;;;;2256586;61;20457;-64
2023/02/22 03:22:36;0.00;0.00;0.62;0.00;0.00;0.62;5.90;4.70;;;23.70;26.20;;;;;;2251360;61;20393;-65
2023/02/22 03:25:29;0.00;0.00;0.62;0.00;0.00;0.62;6.27;4.43;;;23.70;26.20;;;;;;2255938;61;20900;-65
2023/02/22 03:28:21;0.00;0.00;0.62;0.00;0.00;0.62;5.70;4.83;;;23.70;26.20;;;;;;2256546;61;20366;-65
2023/02/22 03:31:15;0.00;0.00;0.62;0.00;0.00;0.62;6.10;5.00;;;23.60;26.10;;;;;;2255887;61;20381;-62
2023/02/22 03:34:07;0.00;0.00;0.62;0.00;0.00;0.62;5.37;4.40;;;23.60;26.10;;;;;;2256024;61;20436;-66
2023/02/22 03:36:58;0.00;0.00;0.62;0.00;0.00;0.62;5.10;4.30;;;23.60;26.10;;;;;;2252785;61;20390;-66
2023/02/22 03:39:44;0.00;0.00;0.62;0.00;0.00;0.62;5.67;4.50;;;23.60;26.00;;;;;;2252833;61;20955;-66
2023/02/22 03:42:36;0.00;0.00;0.62;0.00;0.00;0.62;7.43;5.97;;;23.60;26.00;;;;;;2256643;61;20389;-64
2023/02/22 03:45:24;0.00;0.00;0.62;0.00;0.00;0.62;5.50;4.67;;;23.60;26.00;;;;;;2255315;61;20374;-68
2023/02/22 03:48:17;0.00;0.00;0.62;0.00;0.00;0.62;5.27;4.60;;;23.60;26.00;;;;;;2255139;61;20369;-65
2023/02/22 03:51:03;0.00;0.00;0.62;0.00;0.00;0.62;7.07;5.33;;;23.50;25.90;;;;;;2255132;61;20366;-65
2023/02/22 03:53:49;0.00;0.00;0.62;0.00;0.00;0.62;6.03;5.17;;;23.60;26.00;;;;;;2255741;61;20449;-68
2023/02/22 03:56:45;0.00;0.00;0.62;0.00;0.00;0.62;6.60;5.57;;;23.50;25.90;;;;;;2253311;61;20401;-64
2023/02/22 03:59:33;0.00;0.00;0.62;0.00;0.00;0.62;6.83;5.20;;;23.50;25.90;;;;;;2253940;61;20378;-65
2023/02/22 04:02:17;0.00;0.00;0.62;0.00;0.00;0.62;6.17;4.30;;;23.50;25.90;;;;;;2256260;61;20967;-64
2023/02/22 04:05:03;0.00;0.00;0.62;0.00;0.00;0.62;6.60;5.77;;;23.50;25.90;;;;;;2253336;61;20893;-65
2023/02/22 04:07:48;0.00;0.00;0.62;0.00;0.00;0.62;6.43;5.20;;;23.50;25.90;;;;;;2255525;61;20428;-65
2023/02/22 04:10:36;0.00;0.00;0.62;0.00;0.00;0.62;7.67;5.03;;;23.40;25.90;;;;;;2255485;61;20413;-66
2023/02/22 04:13:21;0.00;0.00;0.62;0.00;0.00;0.62;5.97;4.80;;;23.40;26.40;;;;;;2255119;61;20418;-63
2023/02/22 04:16:09;0.00;0.00;0.62;0.00;0.00;0.62;5.60;4.97;;;23.40;25.90;;;;;;2253001;61;20404;-63
2023/02/22 04:18:54;0.00;0.00;0.62;0.00;0.00;0.62;5.63;5.03;;;23.40;26.00;;;;;;2255921;61;20361;-66
2023/02/22 04:21:39;0.00;0.00;0.62;0.00;0.00;0.62;5.57;4.70;;;23.40;25.90;;;;;;2252418;61;20929;-65
2023/02/22 04:24:29;0.00;0.00;0.62;0.00;0.00;0.62;4.83;4.30;;;23.40;25.90;;;;;;2253179;61;20361;-66
2023/02/22 04:27:15;0.00;0.00;0.62;0.00;0.00;0.62;6.10;4.83;;;23.30;25.90;;;;;;2253406;61;20420;-65
2023/02/22 04:30:00;0.00;0.00;0.62;0.00;0.00;0.62;4.57;3.97;;;23.30;25.90;;;;;;2252497;61;20833;-64
2023/02/22 04:32:48;0.00;0.00;0.62;0.00;0.00;0.62;7.03;5.03;;;23.30;25.90;;;;;;2253197;61;20385;-65
2023/02/22 04:35:35;0.00;0.00;0.62;0.00;0.00;0.62;5.63;4.97;;;23.30;26.00;;;;;;2252582;61;20520;-65
2023/02/22 04:38:21;0.00;0.00;0.62;0.00;0.00;0.62;5.70;5.07;;;23.30;26.00;;;;;;2255605;61;20374;-64
2023/02/22 04:41:06;0.00;0.00;0.62;0.00;0.00;0.62;6.20;4.97;;;23.20;25.90;;;;;;2252772;61;20366;-65
2023/02/22 04:43:52;0.00;0.00;0.62;0.00;0.00;0.62;5.37;4.40;;;23.20;25.90;;;;;;2255627;61;20424;-65
2023/02/22 04:46:39;0.00;0.00;0.62;0.00;0.00;0.62;5.83;5.23;;;23.20;25.90;;;;;;2252920;61;20421;-65
2023/02/22 04:49:07;0.00;0.00;0.62;0.00;0.00;0.62;4.97;4.30;;;23.20;25.90;;;;;;2252542;61;20356;-65
2023/02/22 04:51:36;0.00;0.00;0.62;0.00;0.00;0.62;4.70;4.20;;;23.20;26.00;;;;;;2251381;61;20442;-66
2023/02/22 04:54:25;0.00;0.00;0.62;0.00;0.00;0.62;5.20;4.70;;;23.20;26.00;;;;;;2253209;61;21092;-65
2023/02/22 04:57:10;0.00;0.00;0.62;0.00;0.00;0.62;5.63;3.73;;;23.20;26.00;;;;;;2255779;61;20590;-70
2023/02/22 04:59:55;0.00;0.00;0.62;0.00;0.00;0.62;5.03;3.93;;;23.10;25.90;;;;;;2252675;61;20405;-62
2023/02/22 05:02:41;0.00;0.00;0.62;0.00;0.00;0.62;5.27;4.07;;;23.10;25.90;;;;;;2253027;61;21002;-65
2023/02/22 05:05:27;0.00;0.00;0.62;0.00;0.00;0.62;5.70;4.20;;;23.10;25.90;;;;;;2255521;61;20362;-65
2023/02/22 05:08:12;0.00;0.00;0.62;0.00;0.00;0.62;5.73;4.60;;;23.10;25.90;;;;;;2258714;61;20373;-65
2023/02/22 05:10:56;0.00;0.00;0.62;0.00;0.00;0.62;5.27;4.27;;;23.00;25.90;;;;;;2260303;61;20897;-68
2023/02/22 05:13:41;0.00;0.00;0.62;0.00;0.00;0.62;5.97;4.23;;;23.10;26.00;;;;;;2258901;61;20381;-65
2023/02/22 05:16:25;0.00;0.00;0.62;0.00;0.00;0.62;4.77;4.00;;;23.00;25.90;;;;;;2259972;61;21060;-65
2023/02/22 05:19:10;0.00;0.00;0.62;0.00;0.00;0.62;5.07;4.00;;;23.00;25.90;;;;;;2260251;61;20388;-66
2023/02/22 05:21:56;0.00;0.00;0.62;0.00;0.00;0.62;3.97;3.57;;;23.00;25.90;;;;;;2259824;61;20430;-65
2023/02/22 05:24:42;0.00;0.00;0.62;0.00;0.00;0.62;5.60;3.73;;;23.00;25.90;;;;;;2260100;61;20412;-66
2023/02/22 05:27:27;0.00;0.00;0.62;0.00;0.00;0.62;4.27;3.67;;;23.00;25.90;;;;;;2259504;61;20776;-65
2023/02/22 05:30:13;0.00;0.00;0.62;0.00;0.00;0.62;4.10;3.40;;;23.00;25.90;;;;;;2259069;61;20376;-65
2023/02/22 05:32:58;0.00;0.00;0.62;0.00;0.00;0.62;4.27;3.50;;;23.00;25.90;;;;;;2260614;61;20389;-64
2023/02/22 05:35:43;0.00;0.00;0.62;0.00;0.00;0.62;4.10;3.23;;;23.00;25.90;;;;;;2260293;61;20388;-66
2023/02/22 05:38:29;0.00;0.00;0.62;0.00;0.00;0.62;4.80;3.30;;;23.00;25.90;;;;;;2260933;61;20794;-66
2023/02/22 05:41:13;0.00;0.00;0.62;0.00;0.00;0.62;5.20;3.83;;;23.00;25.90;;;;;;2260724;61;20373;-65
2023/02/22 05:43:58;0.00;0.00;0.62;0.00;0.00;0.62;4.70;3.37;;;22.90;25.90;;;;;;2260536;61;20925;-66
2023/02/22 05:46:43;0.00;0.00;0.62;0.00;0.00;0.62;4.00;3.50;;;22.90;25.90;;;;;;2260545;61;20434;-65
2023/02/22 05:49:28;0.00;0.00;0.62;0.00;0.00;0.62;4.10;3.20;;;22.90;25.90;;;;;;2259964;61;20396;-65
2023/02/22 05:52:12;0.00;0.00;0.62;0.00;0.00;0.62;5.63;4.17;;;22.90;25.90;;;;;;2260717;61;20431;-65
2023/02/22 05:54:58;0.00;0.00;0.62;0.00;0.00;0.62;3.53;3.20;;;22.90;25.90;;;;;;2261130;61;20419;-66
2023/02/22 05:57:43;0.00;0.00;0.62;0.00;0.00;0.62;4.10;3.13;;;22.90;25.90;;;;;;2260204;61;20440;-65
2023/02/22 06:00:30;0.00;0.00;0.62;0.00;0.00;0.62;4.77;4.03;;;22.90;25.90;;;;;;2260301;61;20368;-65
2023/02/22 06:03:17;0.00;0.00;0.62;0.00;0.00;0.62;4.43;3.63;;;22.90;25.90;;;;;;2260547;61;20912;-66
2023/02/22 06:06:01;0.00;0.00;0.62;0.00;0.00;0.62;5.53;4.10;;;22.90;25.90;;;;;;2259753;61;20399;-65
2023/02/22 06:08:47;0.00;0.00;0.62;0.00;0.00;0.62;4.77;3.63;;;22.80;26.10;;;;;;2260611;61;20356;-64
2023/02/22 06:11:33;0.00;0.00;0.62;0.00;0.00;0.62;3.80;3.40;;;22.80;25.90;;;;;;2260192;61;20360;-66
2023/02/22 06:14:17;0.00;0.00;0.62;0.00;0.00;0.62;5.50;3.70;;;22.80;25.90;;;;;;2253786;61;20427;-66
2023/02/22 06:17:04;0.00;0.00;0.62;0.00;0.00;0.62;3.97;3.33;;;22.80;25.90;;;;;;2260997;61;20393;-65
2023/02/22 06:19:49;0.00;0.00;0.62;0.00;0.00;0.62;4.57;3.40;;;22.80;26.00;;;;;;2259811;61;20361;-63
2023/02/22 06:22:34;0.00;0.00;0.62;0.00;0.00;0.62;4.03;3.13;;;22.80;26.00;;;;;;2260597;61;20435;-67
2023/02/22 06:25:22;0.00;0.00;0.62;0.00;0.00;0.62;3.80;3.20;;;22.80;26.00;;;;;;2260944;61;20356;-63
2023/02/22 06:28:09;0.00;0.00;0.62;0.00;0.00;0.62;3.83;3.20;;;22.80;26.00;;;;;;2260285;61;20357;-65
2023/02/22 06:30:54;0.00;0.00;0.62;0.00;0.00;0.62;4.30;3.90;;;22.70;26.00;;;;;;2260764;61;20383;-65
2023/02/22 06:33:39;0.00;0.00;0.62;0.00;0.00;0.62;4.13;3.23;;;22.70;26.00;;;;;;2260592;61;20509;-65
2023/02/22 06:36:24;0.00;0.00;0.62;0.00;0.00;0.62;5.50;3.53;;;22.70;26.00;;;;;;2260415;61;20376;-66
2023/02/22 06:39:14;0.00;0.00;0.62;0.00;0.00;0.62;5.77;4.03;;;22.70;26.00;;;;;;2257154;61;20775;-66
2023/02/22 06:41:59;0.00;0.00;0.62;0.00;0.00;0.62;3.70;3.13;;;22.70;26.00;;;;;;2258456;61;20384;-68
2023/02/22 06:44:45;0.00;0.00;0.62;0.00;0.00;0.62;5.30;3.87;;;22.70;26.00;;;;;;2254685;61;20385;-63
2023/02/22 06:47:30;0.00;0.00;0.62;0.00;0.00;0.62;7.53;3.90;;;22.70;26.00;;;;;;2256699;61;20780;-66
2023/02/22 06:50:22;0.00;0.00;0.62;0.00;0.00;0.62;4.40;3.90;;;22.70;26.10;;;;;;2255267;61;20385;-65
2023/02/22 06:53:08;0.00;0.00;0.62;0.00;0.00;0.62;5.03;3.33;;;22.60;26.00;;;;;;2260372;61;20381;-65
2023/02/22 06:55:54;0.00;0.00;0.62;0.00;0.00;0.62;4.33;3.73;;;22.60;26.00;;;;;;2260434;61;20404;-63
2023/02/22 06:58:38;0.00;0.00;0.62;0.00;0.00;0.62;5.20;3.90;;;22.60;26.10;;;;;;2260835;61;20445;-62
2023/02/22 07:01:25;0.00;0.00;0.62;0.00;0.00;0.62;4.40;3.83;;;22.60;26.10;;;;;;2260955;61;20779;-60
2023/02/22 07:04:10;0.00;0.00;0.62;0.00;0.00;0.62;5.67;3.80;;;22.60;26.10;;;;;;2260355;61;20823;-62
2023/02/22 07:06:55;0.00;0.00;0.62;0.00;0.00;0.62;5.17;4.17;;;22.60;26.10;;;;;;2260599;61;20352;-66
2023/02/22 07:09:39;0.00;0.00;0.62;0.00;0.00;0.62;4.90;3.37;;;22.50;26.00;;;;;;2260720;61;20445;-64
2023/02/22 07:12:24;0.00;0.00;0.62;0.00;0.00;0.62;3.47;2.90;;;22.60;26.10;;;;;;2259809;61;20422;-63
2023/02/22 07:15:09;0.00;0.00;0.62;0.00;0.00;0.62;3.70;2.77;;;22.60;26.10;;;;;;2260840;61;20356;-63
2023/02/22 07:17:55;0.00;0.00;0.62;0.00;0.00;0.62;3.60;2.77;;;22.60;26.70;;;;;;2260185;61;20929;-62
2023/02/22 07:20:41;0.00;0.00;0.62;0.00;0.00;0.62;3.10;2.80;;;22.50;26.10;;;;;;2260103;61;20385;-64
2023/02/22 07:23:26;0.00;0.00;0.62;0.00;0.00;0.62;2.50;2.00;;;22.50;26.10;;;;;;2260805;61;20976;-63
2023/02/22 07:26:11;0.00;0.00;0.62;0.00;0.00;0.62;3.53;2.80;;;22.60;26.20;;;;;;2260109;61;20365;-63
2023/02/22 07:28:56;0.00;0.00;0.62;0.00;0.00;0.62;4.37;2.90;;;22.50;26.10;;;;;;2260174;61;20769;-63
2023/02/22 07:31:40;0.00;0.00;0.62;0.00;0.00;0.62;3.20;2.30;;;22.50;26.10;;;;;;2260786;61;20425;-63
2023/02/22 07:34:26;0.00;0.00;0.62;0.00;0.00;0.62;2.93;2.33;;;22.50;26.10;;;;;;2256570;61;20902;-63
2023/02/22 07:37:11;0.00;0.00;0.62;0.00;0.00;0.62;2.37;1.93;;;22.60;26.20;;;;;;2260702;61;20380;-63
2023/02/22 07:39:55;0.00;0.00;0.62;0.00;0.00;0.62;3.50;2.27;;;22.60;26.20;;;;;;2260476;61;20454;-62
2023/02/22 07:42:55;0.00;0.00;0.62;0.00;0.00;0.62;3.07;2.30;;;22.60;26.20;;;;;;2260695;61;20960;-62
2023/02/22 07:45:40;0.00;0.00;0.62;0.00;0.00;0.62;4.70;2.73;;;22.60;26.20;;;;;;2260610;61;20360;-63
2023/02/22 07:48:28;0.00;0.00;0.62;0.00;0.00;0.62;3.40;2.30;;;22.60;26.20;;;;;;2259885;61;20485;-63
2023/02/22 07:51:16;0.00;0.00;0.62;0.00;0.00;0.62;2.20;1.70;;;22.60;26.20;;;;;;2260324;61;20368;-63
2023/02/22 07:54:01;0.00;0.00;0.62;0.00;0.00;0.62;3.83;2.40;;;22.60;26.20;;;;;;2260802;61;20361;-63
2023/02/22 07:56:47;0.00;0.00;0.62;0.00;0.00;0.62;2.90;1.63;;;22.60;26.20;;;;;;2259865;61;20388;-63
2023/02/22 07:59:32;0.00;0.00;0.62;0.00;0.00;0.62;2.87;2.37;;;22.60;26.20;;;;;;2259873;61;20780;-62
2023/02/22 08:02:17;0.00;0.00;0.62;0.00;0.00;0.62;2.93;2.30;;;22.60;26.20;;;;;;2256434;61;20396;-63
2023/02/22 08:05:04;0.00;0.00;0.62;0.00;0.00;0.62;2.87;2.10;;;22.60;26.20;;;;;;2256141;61;20806;-62
2023/02/22 08:07:50;0.00;0.00;0.62;0.00;0.00;0.62;2.60;1.93;;;22.60;26.20;;;;;;2256391;61;20485;-60
2023/02/22 08:10:36;0.00;0.00;0.62;0.00;0.00;0.62;2.57;2.10;;;22.60;26.20;;;;;;2255263;61;20894;-61
2023/02/22 08:13:22;0.00;0.00;0.62;0.00;0.00;0.62;2.87;1.80;;;22.60;26.30;;;;;;2255760;61;20405;-61
2023/02/22 08:16:07;0.00;0.00;0.62;0.00;0.00;0.62;2.87;1.63;;;22.60;26.30;;;;;;2256306;61;20365;-62
2023/02/22 08:18:51;0.00;0.00;0.62;0.00;0.00;0.62;2.83;2.17;;;22.60;26.80;;;;;;2251992;61;20358;-61
2023/02/22 08:21:36;0.00;0.00;0.62;0.00;0.00;0.62;2.67;1.87;;;22.60;26.30;;;;;;2256204;61;20464;-61
2023/02/22 08:24:22;0.00;0.00;0.62;0.00;0.00;0.62;2.50;2.10;;;22.60;26.30;;;;;;2255661;61;20409;-61
2023/02/22 08:27:07;0.00;0.00;0.62;0.00;0.00;0.62;2.67;2.17;;;22.60;26.30;;;;;;2256148;61;20430;-60
2023/02/22 08:29:52;0.00;0.00;0.62;0.00;0.00;0.62;2.17;1.87;;;22.60;26.30;;;;;;2256069;61;20951;-60
2023/02/22 08:32:37;0.00;0.00;0.62;0.00;0.00;0.62;3.50;2.10;;;22.60;26.30;;;;;;2255613;61;20418;-61
2023/02/22 08:35:22;0.00;0.00;0.62;0.00;0.00;0.62;3.13;1.90;;;22.70;26.30;;;;;;2256054;61;20914;-61
2023/02/22 08:38:16;0.00;0.00;0.62;0.00;0.00;0.62;2.73;1.80;;;22.70;26.30;;;;;;2256175;61;20478;-61
2023/02/22 08:41:02;0.00;0.00;0.62;0.00;0.00;0.62;3.63;2.30;;;22.70;26.30;;;;;;2254928;61;20781;-60
2023/02/22 08:43:47;0.00;0.00;0.62;0.00;0.00;0.62;2.57;1.93;;;22.70;26.30;;;;;;2255897;61;20390;-60
2023/02/22 08:46:32;0.00;0.00;0.62;0.00;0.00;0.62;2.50;1.73;;;22.70;26.30;;;;;;2256281;61;20365;-61
2023/02/22 08:49:17;0.00;0.00;0.62;0.00;0.00;0.62;3.33;2.50;;;22.70;26.30;;;;;;2255772;61;20378;-61
2023/02/22 08:52:01;0.00;0.00;0.62;0.00;0.00;0.62;3.60;2.07;;;22.70;26.30;;;;;;2256194;61;20962;-63
2023/02/22 08:54:46;0.00;0.00;0.62;0.00;0.00;0.62;1.90;1.53;;;22.70;26.30;;;;;;2255592;61;20362;-62
2023/02/22 08:57:32;0.00;0.00;0.62;0.00;0.00;0.62;3.00;2.33;;;22.70;26.30;;;;;;2255726;61;20440;-62
2023/02/22 09:00:24;0.00;0.00;0.62;0.00;0.00;0.62;3.10;2.27;;;22.70;26.30;;;;;;2255348;61;20401;-61
2023/02/22 09:03:12;0.00;0.00;0.62;0.00;0.00;0.62;2.60;2.20;;;22.80;26.30;;;;;;2255505;61;20389;-61
2023/02/22 09:06:01;0.00;0.00;0.62;0.00;0.00;0.62;2.70;2.23;;;22.70;26.20;;;;;;2255919;61;20354;-64
2023/02/22 09:08:45;0.00;0.00;0.62;0.00;0.00;0.62;3.20;2.20;;;22.80;26.30;;;;;;2252701;61;20362;-61
2023/02/22 09:11:30;0.00;0.00;0.62;0.00;0.00;0.62;3.30;2.47;;;22.80;26.30;;;;;;2255959;61;20882;-60
2023/02/22 09:14:16;0.00;0.00;0.62;0.00;0.00;0.62;3.30;2.50;;;22.80;26.30;;;;;;2255563;61;20373;-61
2023/02/22 09:17:02;0.00;0.00;0.62;0.00;0.00;0.62;3.40;2.33;;;22.80;26.30;;;;;;2255465;61;20381;-61
2023/02/22 09:19:47;0.00;0.00;0.62;0.00;0.00;0.62;3.30;2.57;;;22.80;26.30;;;;;;2255796;61;20755;-62
2023/02/22 09:22:32;0.00;0.00;0.62;0.00;0.00;0.62;2.63;2.00;;;22.80;26.30;;;;;;2256213;61;20489;-62
2023/02/22 09:25:19;0.00;0.00;0.62;0.00;0.00;0.62;4.17;2.87;;;22.80;26.30;;;;;;2255768;61;20369;-63
2023/02/22 09:28:05;0.00;0.00;0.62;0.00;0.00;0.62;3.77;3.40;;;22.80;26.30;;;;;;2256123;61;20357;-61
2023/02/22 09:30:52;0.00;0.00;0.62;0.00;0.00;0.62;3.93;2.93;;;22.80;26.30;;;;;;2255834;61;20420;-62
2023/02/22 09:33:37;0.00;0.00;0.62;0.00;0.00;0.62;3.53;3.00;;;22.80;26.30;;;;;;2255792;61;20486;-61
2023/02/22 09:36:22;0.00;0.00;0.62;0.00;0.00;0.62;4.50;3.20;;;22.90;26.30;;;;;;2256218;61;20357;-60
2023/02/22 09:39:10;0.00;0.00;0.62;0.00;0.00;0.62;4.03;2.90;;;22.80;26.20;;;;;;2255312;61;20361;-63
2023/02/22 09:42:05;0.00;0.00;0.62;0.00;0.00;0.62;4.87;3.50;;;22.90;26.40;;;;;;2255590;61;20461;-61
2023/02/22 09:44:58;0.00;0.00;0.62;0.00;0.00;0.62;6.17;4.27;;;22.90;26.30;;;;;;2253051;61;20398;-63
2023/02/22 09:47:49;0.00;0.00;0.62;0.00;0.00;0.62;4.50;3.60;;;22.90;26.30;;;;;;2255186;61;20378;-62
2023/02/22 09:50:41;0.00;0.00;0.62;0.00;0.00;0.62;5.80;4.37;;;22.90;26.30;;;;;;2256246;61;20450;-61
2023/02/22 09:53:32;0.00;0.00;0.62;0.00;0.00;0.62;5.10;4.13;;;22.80;26.20;;;;;;2255526;61;20436;-63
2023/02/22 09:56:19;0.00;0.00;0.62;0.00;0.00;0.62;5.20;4.30;;;22.90;26.30;;;;;;2255861;61;20361;-59
2023/02/22 09:59:11;0.00;0.00;0.62;0.00;0.00;0.62;4.73;3.83;;;22.90;26.30;;;;;;2255885;61;20457;-64
2023/02/22 10:02:05;0.00;0.00;0.62;0.00;0.00;0.62;5.97;4.50;;;22.90;26.30;;;;;;2254653;61;20377;-63
2023/02/22 10:05:00;0.00;0.00;0.62;0.00;0.00;0.62;5.93;4.67;;;22.90;26.30;;;;;;2256033;61;20381;-63
2023/02/22 10:07:53;0.00;0.00;0.62;0.00;0.00;0.62;5.90;4.53;;;22.90;26.30;;;;;;2256277;61;20416;-63
2023/02/22 10:10:44;0.00;0.00;0.62;0.00;0.00;0.62;4.33;3.70;;;22.90;26.30;;;;;;2252321;61;20416;-63
2023/02/22 10:13:40;0.00;0.00;0.62;0.00;0.00;0.62;5.73;4.70;;;22.90;26.30;;;;;;2255296;61;20793;-61
2023/02/22 10:16:33;0.00;0.00;0.62;0.00;0.00;0.62;5.90;4.50;;;23.00;26.40;;;;;;2255206;61;20366;-63
2023/02/22 10:19:30;0.00;0.00;0.62;0.00;0.00;0.62;6.10;4.27;;;23.00;26.40;;;;;;2256122;61;20412;-60
2023/02/22 10:22:42;0.00;0.00;0.62;0.00;0.00;0.62;4.90;3.80;;;23.00;26.40;;;;;;2253566;61;20389;-60
2023/02/22 10:25:33;0.00;0.00;0.62;0.00;0.00;0.62;5.90;4.57;;;23.00;26.40;;;;;;2256386;61;20369;-62
2023/02/22 10:28:23;0.00;0.00;0.62;0.00;0.00;0.62;4.97;4.47;;;23.00;26.40;;;;;;2256696;61;20898;-63
2023/02/22 10:31:17;0.00;0.00;0.62;0.00;0.00;0.62;6.40;4.20;;;23.00;26.40;;;;;;2255624;61;20886;-62
2023/02/22 10:34:11;0.00;0.00;0.62;0.00;0.00;0.62;5.40;4.50;;;23.00;26.40;;;;;;2256596;61;20410;-63
2023/02/22 10:37:03;0.00;0.00;0.62;0.00;0.00;0.62;4.80;4.30;;;23.00;26.40;;;;;;2256750;61;20390;-63
2023/02/22 10:39:52;0.00;0.00;0.62;0.00;0.00;0.62;4.90;4.10;;;23.00;26.40;;;;;;2255604;61;20425;-61
2023/02/22 10:42:37;0.00;0.00;0.62;0.00;0.00;0.62;6.03;4.50;;;23.10;26.50;;;;;;2256855;61;20390;-63
2023/02/22 10:45:25;0.00;0.00;0.62;0.00;0.00;0.62;5.73;4.30;;;23.10;26.40;;;;;;2255760;61;20435;-64
2023/02/22 10:48:17;0.00;0.00;0.62;0.00;0.00;0.62;5.10;3.53;;;23.10;26.40;;;;;;2256550;61;20374;-62
2023/02/22 10:51:05;0.00;0.00;0.62;0.00;0.00;0.62;4.90;3.70;;;23.10;26.50;;;;;;2256478;61;20409;-62
2023/02/22 10:54:05;0.00;0.00;0.62;0.00;0.00;0.62;4.93;4.00;;;23.10;26.40;;;;;;2255684;61;20847;-62
2023/02/22 10:56:57;0.00;0.00;0.62;0.00;0.00;0.62;4.57;3.70;;;23.10;26.40;;;;;;2256968;61;20394;-62
2023/02/22 10:59:42;0.00;0.00;0.62;0.00;0.00;0.62;5.20;4.07;;;23.20;26.50;;;;;;2256361;61;20850;-62
2023/02/22 11:02:29;0.00;0.00;0.62;0.00;0.00;0.62;4.70;3.93;;;23.20;26.50;;;;;;2255991;61;20382;-61